createdAt,value
2018-12-17T00:01:15.359Z,36.70
2018-12-17T00:03:43.650Z,36.90
2018-12-17T00:06:12.483Z,37.20
2018-12-17T00:08:41.301Z,37.20
2018-12-17T00:11:09.493Z,37.40
2018-12-17T00:13:37.661Z,37.40
2018-12-17T00:16:05.840Z,37.60
2018-12-17T00:18:33.970Z,37.70
2018-12-17T00:21:02.145Z,37.90
2018-12-17T00:23:30.280Z,37.90
2018-12-17T00:25:58.399Z,38.00
2018-12-17T00:28:26.555Z,38.20
2018-12-17T00:30:54.683Z,38.50
2018-12-17T00:33:22.802Z,38.50
2018-12-17T00:35:50.934Z,38.60
2018-12-17T00:38:19.045Z,38.70
2018-12-17T00:40:47.782Z,38.70
2018-12-17T00:43:15.893Z,38.50
2018-12-17T00:45:45.094Z,38.30
2018-12-17T00:48:13.248Z,38.10
2018-12-17T00:50:41.366Z,37.90
2018-12-17T00:53:09.511Z,37.60
2018-12-17T00:55:38.351Z,37.40
2018-12-17T00:58:06.465Z,37.00
2018-12-17T01:00:34.578Z,36.90
2018-12-17T01:03:02.738Z,36.80
2018-12-17T01:05:30.844Z,36.70
2018-12-17T01:07:59.062Z,36.50
2018-12-17T01:10:27.206Z,36.30
2018-12-17T01:12:55.329Z,36.10
2018-12-17T01:15:23.439Z,36.00
2018-12-17T01:17:51.639Z,36.00
2018-12-17T01:20:23.503Z,35.70
2018-12-17T01:22:51.619Z,35.70
2018-12-17T01:25:19.809Z,36.20
2018-12-17T01:27:47.933Z,36.10
2018-12-17T01:30:16.038Z,36.00
2018-12-17T01:32:44.471Z,36.20
2018-12-17T01:35:12.595Z,36.10
2018-12-17T01:37:40.715Z,35.90
2018-12-17T01:40:08.842Z,35.80
2018-12-17T01:42:36.964Z,35.80
2018-12-17T01:45:06.324Z,35.90
2018-12-17T01:47:34.446Z,36.10
2018-12-17T01:50:02.568Z,36.20
2018-12-17T01:52:30.721Z,36.50
2018-12-17T01:54:59.112Z,36.50
2018-12-17T01:57:27.207Z,36.60
2018-12-17T01:59:55.572Z,36.80
2018-12-17T02:02:24.060Z,36.80
2018-12-17T02:04:52.173Z,37.10
2018-12-17T02:07:20.316Z,37.40
2018-12-17T02:09:48.885Z,37.60
2018-12-17T02:12:16.997Z,37.70
2018-12-17T02:14:45.185Z,37.80
2018-12-17T02:17:13.399Z,37.90
2018-12-17T02:19:41.543Z,38.10
2018-12-17T02:22:09.651Z,38.10
2018-12-17T02:24:37.800Z,38.40
2018-12-17T02:27:05.920Z,38.20
2018-12-17T02:29:34.046Z,38.50
2018-12-17T02:32:02.950Z,38.40
2018-12-17T02:34:31.070Z,38.60
2018-12-17T02:36:59.183Z,39.00
2018-12-17T02:39:27.427Z,38.70
2018-12-17T02:41:55.522Z,38.30
2018-12-17T02:44:23.657Z,38.20
2018-12-17T02:46:53.162Z,38.20
2018-12-17T02:49:22.350Z,38.40
2018-12-17T02:51:50.473Z,38.20
2018-12-17T02:54:18.652Z,38.00
2018-12-17T02:56:46.772Z,37.80
2018-12-17T02:59:14.899Z,37.60
2018-12-17T03:01:43.500Z,37.50
2018-12-17T03:04:11.625Z,37.10
2018-12-17T03:06:39.737Z,37.00
2018-12-17T03:09:07.870Z,36.80
2018-12-17T03:11:35.973Z,36.60
2018-12-17T03:14:04.150Z,36.40
2018-12-17T03:16:32.287Z,36.00
2018-12-17T03:19:00.503Z,35.90
2018-12-17T03:21:28.641Z,36.10
2018-12-17T03:23:56.752Z,36.10
2018-12-17T03:26:24.895Z,35.80
2018-12-17T03:29:05.991Z,35.60
2018-12-17T03:31:34.495Z,35.50
2018-12-17T03:34:02.609Z,35.50
2018-12-17T03:36:30.719Z,35.60
2018-12-17T03:38:59.312Z,35.80
2018-12-17T03:41:27.496Z,36.00
2018-12-17T03:43:55.688Z,36.80
2018-12-17T03:46:23.831Z,37.00
2018-12-17T03:48:51.986Z,37.10
2018-12-17T03:51:20.113Z,37.20
2018-12-17T03:53:48.263Z,37.40
2018-12-17T03:56:16.373Z,37.60
2018-12-17T03:58:44.538Z,37.70
2018-12-17T04:01:12.659Z,37.90
2018-12-17T04:03:40.776Z,38.10
2018-12-17T04:06:08.924Z,37.90
2018-12-17T04:08:37.069Z,37.90
2018-12-17T04:11:05.213Z,38.00
2018-12-17T04:13:35.334Z,38.00
2018-12-17T04:16:05.424Z,38.30
2018-12-17T04:18:36.515Z,38.50
2018-12-17T04:21:06.593Z,38.50
2018-12-17T04:23:36.715Z,38.60
2018-12-17T04:26:06.241Z,38.80
2018-12-17T04:28:34.352Z,38.80
2018-12-17T04:31:03.300Z,38.80
2018-12-17T04:33:31.413Z,38.70
2018-12-17T04:35:59.531Z,38.60
2018-12-17T04:38:27.710Z,38.40
2018-12-17T04:40:55.832Z,38.00
2018-12-17T04:43:23.954Z,37.90
2018-12-17T04:45:52.296Z,37.50
2018-12-17T04:48:20.412Z,37.20
2018-12-17T04:50:48.535Z,36.80
2018-12-17T04:53:16.693Z,36.60
2018-12-17T04:55:44.874Z,36.10
2018-12-17T04:58:12.998Z,35.60
2018-12-17T05:00:41.140Z,35.30
2018-12-17T05:03:09.297Z,34.90
2018-12-17T05:05:37.708Z,34.50
2018-12-17T05:08:05.843Z,34.40
2018-12-17T05:10:33.979Z,34.20
2018-12-17T05:13:02.138Z,34.10
2018-12-17T05:15:30.325Z,34.20
2018-12-17T05:17:58.491Z,34.00
2018-12-17T05:20:26.610Z,34.10
2018-12-17T05:22:54.739Z,34.20
2018-12-17T05:25:22.882Z,34.60
2018-12-17T05:27:50.996Z,34.90
2018-12-17T05:30:19.217Z,35.10
2018-12-17T05:32:47.346Z,35.30
2018-12-17T05:35:15.743Z,35.40
2018-12-17T05:37:43.932Z,35.70
2018-12-17T05:40:12.056Z,35.90
2018-12-17T05:42:40.507Z,36.10
2018-12-17T05:45:08.624Z,36.20
2018-12-17T05:47:36.741Z,36.30
2018-12-17T05:50:05.564Z,36.70
2018-12-17T05:52:33.703Z,36.80
2018-12-17T05:55:01.899Z,37.00
2018-12-17T05:57:30.026Z,37.20
2018-12-17T05:59:58.340Z,37.20
2018-12-17T06:02:26.464Z,37.40
2018-12-17T06:04:54.573Z,37.70
2018-12-17T06:07:22.764Z,37.80
2018-12-17T06:09:50.875Z,38.00
2018-12-17T06:12:18.991Z,38.10
2018-12-17T06:14:47.245Z,38.10
2018-12-17T06:17:15.340Z,38.20
2018-12-17T06:19:43.470Z,38.10
2018-12-17T06:22:11.616Z,38.40
2018-12-17T06:24:39.731Z,38.00
2018-12-17T06:27:07.865Z,37.90
2018-12-17T06:29:36.015Z,37.50
2018-12-17T06:32:04.131Z,37.70
2018-12-17T06:34:32.245Z,37.00
2018-12-17T06:37:00.461Z,36.60
2018-12-17T06:39:28.577Z,36.20
2018-12-17T06:41:56.716Z,35.50
2018-12-17T06:44:24.866Z,34.90
2018-12-17T06:46:52.995Z,35.10
2018-12-17T06:49:21.121Z,34.30
2018-12-17T06:51:49.912Z,34.20
2018-12-17T06:54:18.194Z,34.20
2018-12-17T06:56:46.325Z,33.90
2018-12-17T06:59:14.471Z,33.30
2018-12-17T07:01:48.320Z,32.30
2018-12-17T07:04:19.046Z,31.20
2018-12-17T07:06:47.181Z,30.00
2018-12-17T07:09:15.329Z,29.80
2018-12-17T07:11:43.451Z,29.60
2018-12-17T07:14:11.576Z,29.40
2018-12-17T07:16:39.693Z,29.40
2018-12-17T07:19:07.842Z,29.60
2018-12-17T07:21:35.963Z,29.80
2018-12-17T07:24:04.094Z,30.00
2018-12-17T07:26:32.258Z,30.40
2018-12-17T07:29:00.466Z,31.00
2018-12-17T07:31:28.591Z,31.40
2018-12-17T07:33:56.737Z,31.90
2018-12-17T07:36:24.887Z,32.50
2018-12-17T07:38:53.081Z,32.90
2018-12-17T07:41:21.225Z,33.20
2018-12-17T07:43:49.754Z,33.40
2018-12-17T07:46:17.898Z,33.50
2018-12-17T07:48:46.188Z,33.70
2018-12-17T07:51:14.358Z,34.00
2018-12-17T07:53:42.749Z,34.20
2018-12-17T07:56:10.849Z,34.60
2018-12-17T07:58:38.989Z,34.70
2018-12-17T08:01:07.106Z,35.00
2018-12-17T08:03:37.010Z,35.30
2018-12-17T08:06:05.138Z,35.50
2018-12-17T08:08:35.480Z,35.90
2018-12-17T08:11:03.370Z,36.10
2018-12-17T08:13:31.784Z,36.20
2018-12-17T08:15:59.959Z,36.40
2018-12-17T08:18:28.098Z,36.50
2018-12-17T08:20:56.250Z,36.60
2018-12-17T08:23:24.361Z,36.80
2018-12-17T08:25:52.491Z,37.50
2018-12-17T08:28:20.681Z,37.10
2018-12-17T08:30:48.859Z,37.20
2018-12-17T08:33:17.394Z,37.20
2018-12-17T08:35:45.665Z,37.90
2018-12-17T08:38:13.798Z,37.40
2018-12-17T08:40:41.915Z,37.40
2018-12-17T08:43:10.044Z,37.40
2018-12-17T08:45:38.735Z,37.50
2018-12-17T08:48:06.849Z,37.60
2018-12-17T08:50:34.996Z,37.60
2018-12-17T08:53:03.137Z,37.70
2018-12-17T08:55:31.289Z,37.80
2018-12-17T08:57:59.405Z,37.60
2018-12-17T09:00:27.549Z,36.50
2018-12-17T09:02:55.928Z,35.30
2018-12-17T09:05:24.643Z,33.80
2018-12-17T09:07:52.753Z,32.50
2018-12-17T09:10:20.896Z,31.00
2018-12-17T09:12:49.066Z,30.00
2018-12-17T09:15:17.176Z,29.60
2018-12-17T09:17:45.319Z,29.40
2018-12-17T09:20:14.434Z,29.40
2018-12-17T09:22:42.585Z,29.50
2018-12-17T09:25:10.702Z,29.60
2018-12-17T09:27:38.878Z,29.80
2018-12-17T09:30:07.563Z,30.00
2018-12-17T09:32:35.685Z,30.40
2018-12-17T09:35:03.846Z,31.00
2018-12-17T09:37:31.962Z,31.60
2018-12-17T09:40:01.358Z,32.00
2018-12-17T09:42:29.513Z,32.30
2018-12-17T09:44:57.639Z,32.60
2018-12-17T09:47:25.753Z,33.00
2018-12-17T09:49:53.902Z,33.20
2018-12-17T09:52:22.020Z,33.30
2018-12-17T09:54:50.219Z,33.70
2018-12-17T09:57:18.366Z,34.00
2018-12-17T09:59:46.514Z,34.10
2018-12-17T10:02:14.631Z,34.40
2018-12-17T10:04:43.168Z,34.60
2018-12-17T10:07:11.293Z,34.80
2018-12-17T10:09:39.447Z,35.10
2018-12-17T10:12:07.594Z,35.30
2018-12-17T10:14:35.715Z,35.60
2018-12-17T10:17:03.857Z,35.70
2018-12-17T10:19:32.010Z,35.90
2018-12-17T10:22:00.231Z,36.00
2018-12-17T10:24:28.363Z,36.20
2018-12-17T10:26:56.493Z,36.30
2018-12-17T10:29:24.653Z,36.40
2018-12-17T10:31:52.774Z,36.60
2018-12-17T10:34:20.912Z,36.60
2018-12-17T10:36:49.057Z,36.70
2018-12-17T10:39:17.176Z,36.80
2018-12-17T10:41:45.518Z,36.80
2018-12-17T10:44:13.617Z,36.90
2018-12-17T10:46:41.761Z,36.90
2018-12-17T10:49:09.883Z,37.00
2018-12-17T10:51:38.002Z,37.00
2018-12-17T10:54:06.144Z,37.10
2018-12-17T10:56:35.279Z,37.10
2018-12-17T10:59:03.399Z,37.10
2018-12-17T11:01:37.251Z,37.10
2018-12-17T11:04:07.362Z,37.20
2018-12-17T11:06:35.775Z,37.20
2018-12-17T11:09:07.766Z,37.20
2018-12-17T11:11:36.094Z,37.30
2018-12-17T11:14:04.229Z,37.20
2018-12-17T11:16:32.351Z,37.30
2018-12-17T11:19:00.494Z,37.30
2018-12-17T11:21:28.647Z,37.30
2018-12-17T11:23:56.778Z,37.40
2018-12-17T11:26:24.944Z,37.20
2018-12-17T11:28:53.124Z,36.10
2018-12-17T11:31:21.254Z,35.50
2018-12-17T11:33:49.599Z,34.60
2018-12-17T11:36:18.626Z,33.70
2018-12-17T11:38:46.753Z,33.00
2018-12-17T11:41:14.868Z,32.70
2018-12-17T11:43:44.041Z,33.00
2018-12-17T11:46:13.132Z,31.90
2018-12-17T11:48:42.423Z,31.60
2018-12-17T11:51:10.544Z,31.70
2018-12-17T11:53:39.290Z,31.60
2018-12-17T11:56:07.417Z,31.80
2018-12-17T11:58:35.541Z,32.20
2018-12-17T12:01:04.270Z,32.40
2018-12-17T12:03:32.865Z,32.80
2018-12-17T12:06:01.000Z,33.00
2018-12-17T12:08:29.161Z,33.10
2018-12-17T12:10:57.276Z,33.30
2018-12-17T12:13:25.397Z,33.60
2018-12-17T12:15:53.543Z,33.80
2018-12-17T12:18:21.688Z,34.10
2018-12-17T12:20:49.836Z,34.30
2018-12-17T12:23:18.885Z,35.10
2018-12-17T12:25:47.140Z,34.90
2018-12-17T12:28:15.324Z,35.10
2018-12-17T12:30:43.456Z,35.30
2018-12-17T12:33:12.582Z,35.50
2018-12-17T12:35:40.850Z,35.60
2018-12-17T12:38:08.943Z,35.70
2018-12-17T12:40:37.070Z,35.90
2018-12-17T12:43:05.185Z,36.10
2018-12-17T12:45:33.337Z,36.20
2018-12-17T12:48:01.477Z,36.20
2018-12-17T12:50:30.488Z,36.30
2018-12-17T12:52:58.634Z,36.40
2018-12-17T12:55:26.788Z,36.50
2018-12-17T12:57:55.004Z,36.60
2018-12-17T13:00:23.152Z,36.60
2018-12-17T13:02:51.270Z,36.80
2018-12-17T13:05:19.655Z,36.80
2018-12-17T13:07:47.791Z,36.80
2018-12-17T13:10:15.918Z,36.90
2018-12-17T13:12:44.045Z,37.00
2018-12-17T13:15:12.175Z,37.00
2018-12-17T13:17:40.323Z,37.00
2018-12-17T13:20:08.437Z,37.00
2018-12-17T13:22:36.595Z,37.10
2018-12-17T13:25:06.207Z,37.00
2018-12-17T13:27:34.320Z,37.10
2018-12-17T13:30:02.466Z,37.30
2018-12-17T13:32:30.588Z,37.10
2018-12-17T13:34:58.706Z,36.40
2018-12-17T13:37:27.056Z,35.60
2018-12-17T13:39:55.164Z,34.90
2018-12-17T13:42:24.375Z,34.00
2018-12-17T13:44:53.051Z,33.30
2018-12-17T13:47:21.173Z,32.80
2018-12-17T13:49:49.326Z,32.40
2018-12-17T13:52:23.192Z,31.80
2018-12-17T13:54:51.325Z,31.40
2018-12-17T13:57:19.427Z,31.30
2018-12-17T13:59:47.578Z,31.40
2018-12-17T14:02:15.710Z,31.40
2018-12-17T14:04:43.938Z,31.70
2018-12-17T14:07:12.143Z,32.00
2018-12-17T14:12:39.747Z,32.70
2018-12-17T14:15:07.881Z,32.90
2018-12-17T14:17:36.886Z,33.00
2018-12-17T14:20:13.182Z,33.20
2018-12-17T14:22:41.318Z,33.40
2018-12-17T14:25:09.446Z,33.70
2018-12-17T14:27:37.560Z,33.90
2018-12-17T14:30:07.941Z,34.20
2018-12-17T14:32:36.069Z,34.40
2018-12-17T14:35:04.297Z,35.30
2018-12-17T14:37:33.085Z,34.90
2018-12-17T14:40:01.202Z,35.00
2018-12-17T14:42:29.414Z,35.20
2018-12-17T14:44:58.126Z,35.40
2018-12-17T14:47:26.246Z,35.50
2018-12-17T14:49:54.470Z,35.70
2018-12-17T14:52:22.592Z,35.90
2018-12-17T14:54:50.706Z,36.10
2018-12-17T14:57:18.829Z,36.20
2018-12-17T14:59:47.039Z,36.80
2018-12-17T15:02:15.167Z,36.40
2018-12-17T15:04:43.309Z,36.40
2018-12-17T15:07:11.437Z,36.50
2018-12-17T15:09:39.586Z,36.60
2018-12-17T15:12:07.846Z,36.60
2018-12-17T15:14:35.976Z,36.60
2018-12-17T15:17:04.098Z,36.80
2018-12-17T15:19:32.247Z,36.80
2018-12-17T15:22:00.462Z,36.90
2018-12-17T15:24:28.651Z,36.90
2018-12-17T15:26:56.876Z,36.90
2018-12-17T15:29:25.030Z,36.90
2018-12-17T15:31:53.152Z,37.10
2018-12-17T15:34:21.306Z,37.10
2018-12-17T15:36:49.521Z,37.10
2018-12-17T15:39:18.225Z,36.90
2018-12-17T15:41:46.339Z,36.30
2018-12-17T15:44:14.452Z,35.70
2018-12-17T15:46:42.608Z,35.00
2018-12-17T15:49:10.816Z,34.20
2018-12-17T15:51:38.930Z,33.60
2018-12-17T15:54:07.366Z,33.10
2018-12-17T15:56:35.470Z,32.40
2018-12-17T15:59:03.758Z,32.00
2018-12-17T16:01:32.085Z,32.30
2018-12-17T16:04:00.355Z,31.10
2018-12-17T16:08:11.255Z,30.90
2018-12-17T16:10:39.890Z,31.50
2018-12-17T16:13:08.043Z,31.50
2018-12-17T16:15:36.989Z,31.90
2018-12-17T16:18:05.129Z,32.20
2018-12-17T16:20:33.333Z,32.70
2018-12-17T16:23:01.500Z,33.10
2018-12-17T16:25:29.740Z,33.40
2018-12-17T16:27:57.925Z,33.50
2018-12-17T16:30:26.056Z,33.90
2018-12-17T16:32:54.174Z,34.30
2018-12-17T16:35:22.337Z,34.60
2018-12-17T16:37:50.458Z,35.00
2018-12-17T16:40:19.594Z,35.20
2018-12-17T16:42:48.595Z,35.20
2018-12-17T16:45:16.750Z,35.70
2018-12-17T16:47:44.866Z,35.70
2018-12-17T16:50:13.030Z,35.90
2018-12-17T16:52:41.171Z,36.00
2018-12-17T16:57:28.810Z,36.20
2018-12-17T16:59:56.927Z,36.90
2018-12-17T17:02:25.132Z,36.90
2018-12-17T17:04:53.291Z,37.20
2018-12-17T17:07:21.411Z,37.20
2018-12-17T17:09:49.580Z,37.30
2018-12-17T17:12:17.702Z,37.30
2018-12-17T17:14:45.930Z,37.50
2018-12-17T17:17:14.099Z,37.60
2018-12-17T17:19:42.780Z,37.60
2018-12-17T17:22:10.910Z,37.70
2018-12-17T17:24:39.070Z,37.70
2018-12-17T17:27:07.219Z,37.80
2018-12-17T17:29:36.239Z,37.90
2018-12-17T17:32:11.439Z,38.00
2018-12-17T17:34:34.558Z,38.00
2018-12-17T17:37:02.705Z,37.90
2018-12-17T17:39:30.867Z,37.90
2018-12-17T17:41:59.047Z,38.10
2018-12-17T17:44:27.226Z,38.20
2018-12-17T17:46:55.365Z,38.10
2018-12-17T17:49:23.504Z,38.20
2018-12-17T17:51:51.705Z,38.40
2018-12-17T17:54:19.854Z,38.30
2018-12-17T17:56:48.363Z,38.50
2018-12-17T17:59:16.536Z,38.60
2018-12-17T18:01:44.656Z,38.70
2018-12-17T18:04:12.921Z,38.10
2018-12-17T18:06:41.074Z,37.40
2018-12-17T18:09:09.571Z,36.70
2018-12-17T18:11:37.772Z,35.80
2018-12-17T18:14:05.954Z,34.80
2018-12-17T18:16:34.123Z,33.80
2018-12-17T18:19:02.298Z,33.20
2018-12-17T18:21:30.578Z,32.90
2018-12-17T18:23:58.743Z,32.50
2018-12-17T18:26:26.900Z,32.30
2018-12-17T18:28:55.330Z,32.30
2018-12-17T18:31:23.531Z,32.50
2018-12-17T18:33:51.697Z,32.70
2018-12-17T18:36:19.826Z,32.90
2018-12-17T18:38:48.710Z,33.80
2018-12-17T18:41:16.832Z,33.40
2018-12-17T18:43:44.991Z,33.80
2018-12-17T18:46:16.568Z,34.10
2018-12-17T18:48:44.742Z,34.50
2018-12-17T18:51:12.874Z,35.00
2018-12-17T18:53:41.031Z,35.10
2018-12-17T18:56:09.456Z,35.30
2018-12-17T18:58:37.800Z,35.80
2018-12-17T19:01:05.919Z,36.30
2018-12-17T19:03:34.037Z,36.30
2018-12-17T19:06:02.205Z,36.30
2018-12-17T19:08:30.360Z,36.80
2018-12-17T19:10:58.627Z,37.20
2018-12-17T19:13:35.879Z,37.90
2018-12-17T19:16:04.029Z,38.10
2018-12-17T19:18:32.171Z,38.00
2018-12-17T19:21:00.366Z,38.60
2018-12-17T19:23:34.675Z,38.70
2018-12-17T19:27:22.643Z,38.90
2018-12-17T19:29:50.835Z,39.00
2018-12-17T19:32:18.971Z,39.80
2018-12-17T19:34:47.112Z,40.80
2018-12-17T19:37:15.277Z,41.30
2018-12-17T19:39:44.078Z,41.50
2018-12-17T19:42:12.221Z,41.60
2018-12-17T19:44:40.346Z,41.90
2018-12-17T19:47:08.528Z,42.30
2018-12-17T19:49:36.682Z,41.70
2018-12-17T19:52:05.019Z,41.50
2018-12-17T19:54:33.781Z,41.40
2018-12-17T19:57:01.936Z,41.80
2018-12-17T19:59:30.271Z,41.90
2018-12-17T20:01:58.481Z,42.10
2018-12-17T20:04:26.657Z,42.10
2018-12-17T20:06:54.894Z,42.00
2018-12-17T20:09:23.047Z,41.90
2018-12-17T20:11:51.389Z,41.80
2018-12-17T20:14:20.043Z,41.60
2018-12-17T20:16:48.220Z,41.40
2018-12-17T20:19:16.359Z,41.60
2018-12-17T20:21:45.318Z,41.40
2018-12-17T20:24:13.683Z,41.00
2018-12-17T20:26:42.465Z,39.60
2018-12-17T20:29:10.706Z,37.60
2018-12-17T20:31:38.906Z,35.90
2018-12-17T20:34:07.044Z,34.50
2018-12-17T20:36:35.282Z,33.50
2018-12-17T20:39:04.409Z,32.60
2018-12-17T20:41:32.583Z,32.00
2018-12-17T20:44:00.840Z,31.80
2018-12-17T20:46:28.988Z,31.90
2018-12-17T20:48:57.233Z,32.20
2018-12-17T20:51:25.343Z,32.50
2018-12-17T20:53:54.161Z,32.90
2018-12-17T20:56:22.287Z,33.20
2018-12-17T20:58:50.455Z,33.70
2018-12-17T21:01:18.591Z,34.00
2018-12-17T21:03:46.754Z,34.30
2018-12-17T21:06:14.877Z,34.60
2018-12-17T21:08:43.026Z,34.80
2018-12-17T21:11:11.134Z,35.00
2018-12-17T21:13:39.266Z,35.50
2018-12-17T21:16:07.428Z,35.80
2018-12-17T21:18:35.566Z,36.10
2018-12-17T21:21:03.700Z,36.70
2018-12-17T21:23:32.405Z,36.70
2018-12-17T21:26:00.623Z,36.80
2018-12-17T21:28:28.760Z,37.00
2018-12-17T21:30:56.894Z,37.30
2018-12-17T21:33:25.513Z,37.40
2018-12-17T21:35:53.737Z,37.60
2018-12-17T21:38:21.865Z,37.70
2018-12-17T21:40:50.019Z,37.90
2018-12-17T21:43:18.141Z,38.00
2018-12-17T21:45:46.265Z,38.10
2018-12-17T21:48:14.479Z,38.40
2018-12-17T21:50:42.632Z,38.50
2018-12-17T21:53:10.752Z,38.40
2018-12-17T21:55:38.909Z,38.50
2018-12-17T21:58:07.017Z,38.50
2018-12-17T22:00:35.133Z,38.60
2018-12-17T22:03:03.306Z,38.60
2018-12-17T22:05:31.421Z,38.80
2018-12-17T22:08:00.247Z,38.90
2018-12-17T22:10:30.357Z,39.00
2018-12-17T22:12:58.496Z,39.00
2018-12-17T22:15:26.654Z,39.10
2018-12-17T22:17:54.775Z,39.80
2018-12-17T22:20:22.894Z,39.30
2018-12-17T22:22:51.050Z,39.30
2018-12-17T22:25:19.389Z,39.40
2018-12-17T22:27:48.072Z,39.50
2018-12-17T22:30:16.198Z,39.50
2018-12-17T22:32:44.318Z,39.70
2018-12-17T22:35:12.471Z,39.70
2018-12-17T22:37:40.846Z,39.70
2018-12-17T22:40:08.994Z,39.70
2018-12-17T22:42:37.152Z,39.80
2018-12-17T22:45:05.341Z,39.80
2018-12-17T22:47:33.457Z,39.10
2018-12-17T22:50:01.698Z,38.00
2018-12-17T22:52:29.815Z,36.80
2018-12-17T22:54:57.940Z,35.50
2018-12-17T22:57:27.436Z,34.60
2018-12-17T22:59:55.551Z,33.70
2018-12-17T23:02:23.673Z,33.40
2018-12-17T23:04:51.885Z,33.10
2018-12-17T23:07:20.039Z,33.10
2018-12-17T23:10:00.066Z,33.20
2018-12-17T23:12:39.892Z,33.50
2018-12-17T23:15:19.834Z,33.70
2018-12-17T23:17:47.572Z,34.00
2018-12-17T23:20:16.943Z,34.50
2018-12-17T23:22:45.087Z,34.80
2018-12-17T23:25:13.220Z,35.00
2018-12-17T23:27:47.750Z,35.30
2018-12-17T23:30:15.894Z,35.60
2018-12-17T23:32:44.019Z,35.90
2018-12-17T23:35:12.168Z,36.10
2018-12-17T23:37:40.290Z,36.40
2018-12-17T23:40:08.443Z,36.70
2018-12-17T23:42:36.589Z,36.80
2018-12-17T23:46:42.772Z,37.00
2018-12-17T23:50:15.390Z,37.40
2018-12-17T23:55:21.469Z,37.70
2018-12-17T23:57:50.365Z,38.00
